AIRPORT METAR

METAR FOR LSZS
ADDS - METARS form results

(0633 UTC 17 June 2021)
Data provider http://aviationweather.gov/metar/data/
 
METAR text: LSZS 170620Z VRB01KT 9999 FEW031 11/01 Q1024 RMK B TL170
Conditions at: LSZS (SAMEDAN , CH) observed 0620 UTC 17 June 2021
Temperature: 11.0°C (52°F)
Dewpoint: 1.0°C (34°F) [RH = 50%]
Pressure (altimeter): 30.24 inches Hg (1024.0 mb)
Winds: variable direction winds at 1 MPH (1 knots; 0.5 m/s)
Visibility: 6 or more miles (10+ km)
Ceiling: at least 12,000 feet AGL
Clouds: few clouds at 3100 feet AGL
Weather: no significant weather observed at this time

METAR text: LSZS 170550Z VRB02KT 9999 FEW031 10/M00 Q1024 RMK A TL170
Conditions at: LSZS (SAMEDAN , CH) observed 0550 UTC 17 June 2021
Temperature: 10.0°C (50°F)
Dewpoint: 0.0°C (32°F) [RH = 50%]
Pressure (altimeter): 30.24 inches Hg (1024.0 mb)
Winds: variable direction winds at 2 MPH (2 knots; 1.0 m/s)
Visibility: 6 or more miles (10+ km)
Ceiling: at least 12,000 feet AGL
Clouds: few clouds at 3100 feet AGL
Weather: no significant weather observed at this time

Forecast for: LSZS (SAMEDAN , CH)
Text: TAF LSZS 170525Z 1706/1715 VRB02KT 9999 BKN028 TX20/1714Z
Forecast period: 0600 to 1000 UTC 17 June 2021
Forecast type: FROM: standard forecast or significant change
Winds: variable direction winds at 2 MPH (2 knots; 1.0 m/s)
Visibility: 6 or more miles (10+ km)
Ceiling: 2800 feet AGL
Clouds: broken clouds at 2800 feet AGL
Weather: no significant weather forecast for this period
Text: BECMG 1710/1712 22015G25KT
Forecast period: 1000 to 1500 UTC 17 June 2021
Forecast type: BECOMING: Conditions expected to become as follows by 1200 UTC 17 June 2021
Winds: from the SW (220 degrees) at 17 MPH (15 knots; 7.7 m/s)
gusting to 29 MPH (25 knots; 12.9 m/s)
Visibility: 6 or more miles (10+ km)
Ceiling: 2800 feet AGL
Clouds: broken clouds at 2800 feet AGL
Weather: no significant weather forecast for this period
Text: PROB40
Forecast period: 1300 to 1500 UTC 17 June 2021
Forecast type: TEMPORARY: The following changes expected for less than half the time period
Visibility: missing
Ceiling: at least 12,000 feet AGL
Clouds: scattered clouds at 5000 feet AGL
Weather: SHRA  (rain showers)

AIRPORT MAP

 RUNWAY INFORMATION
Runway 03 Runway length 5905 ft Runway width 130 ft
Runway elevation 5600 ft Runway displaced threshold 0 ft Runway heading 29
Runway 21 Runway length 5905 ft Runway width 130 ft
Runway elevation 5574 ft Runway displaced threshold 360 ft Runway heading 209

 AIRPORT FREQUENCIES
Type A/G Name GLIDER Frequency 123.67 MHZ
Type ATIS Name ATIS Frequency 136.6 MHZ
Type GND Name GND Frequency 121.6 MHZ
Type INFO Name INFO Frequency 138.05 MHZ
Type TWR Name TWR Frequency 135.325 MHZ

 AIRPORT NEAR NAVIGATION AIDS



© 2020 - Royal Sky Service, All Right Reserved.